Ammon, Idaho
Current Conditions -  °F | °C
As of 10:53 PM on Sunday 23 Nov 2014 (Local Time) from KIDA Reporting Station
Scattered Clouds Scattered Clouds  
Wind Chill: 20°   Ceiling: Unl
Heat Index: 32°   Visibility: 10mi
Dew Point: 26°   Wind: 21mph
Humidity: 79%   Direction: 200°SSW
Pressure: 30.04"   Gusts: 30mph
Location:  43.4284°N, 111.925°W
Report Text: KIDA 240553Z AUTO 20018G26KT 10SM SCT095 00/M03 A3004 RMK AO2 PK WND 20026/0553 SLP193 T00001033 10017 21006 58014
Loading
Personal Weather Stations






























Interactive Weather Map New forecast layout! Learn more

10-Day Weather Forecast

Advertisements
Track Severe Weather on mobile